Time;durP1;ratioP1;P1;durP2;ratioP2;P2;SDS_P1;SDS_P2;PMS_P1;PMS_P2;Temp;Humidity;BMP_temperature;BMP_pressure;BME280_temperature;BME280_humidity;BME280_pressure;Samples;Min_cycle;Max_cycle;Signal;HPM_P1;HPM_P2
2022/05/06 00:01:46;;;;;;;0.25;0.20;;;10.10;99.90;;;;;;5113197;28;20040;-78
2022/05/06 00:04:16;;;;;;;2.17;0.20;;;10.10;99.90;;;;;;5112823;28;20483;-78
2022/05/06 00:06:42;;;;;;;0.00;0.00;;;10.10;99.90;;;;;;5112974;28;20135;-79
2022/05/06 00:09:08;;;;;;;0.00;0.00;;;10.10;99.90;;;;;;5113048;28;20085;-78
2022/05/06 00:11:34;;;;;;;0.00;0.00;;;10.00;99.90;;;;;;5096340;28;20367;-78
2022/05/06 00:14:00;;;;;;;0.00;0.00;;;10.00;99.90;;;;;;5095775;28;20483;-78
2022/05/06 00:16:27;;;;;;;0.20;0.20;;;9.90;99.90;;;;;;5112686;28;20047;-78
2022/05/06 00:18:53;;;;;;;0.20;0.13;;;9.90;99.90;;;;;;5095835;28;20050;-79
2022/05/06 00:21:19;;;;;;;0.00;0.00;;;9.90;99.90;;;;;;5113333;28;20161;-79
2022/05/06 00:23:45;;;;;;;0.10;0.00;;;9.90;99.90;;;;;;5112830;28;20040;-79
2022/05/06 00:26:11;;;;;;;0.47;0.47;;;9.80;99.90;;;;;;5113003;28;20055;-78
2022/05/06 00:28:37;;;;;;;0.00;0.00;;;9.80;99.90;;;;;;5112815;28;20506;-78
2022/05/06 00:31:04;;;;;;;0.03;0.03;;;9.80;99.90;;;;;;5113076;28;20141;-78
2022/05/06 00:33:30;;;;;;;0.98;0.20;;;9.80;99.90;;;;;;5096027;28;20040;-78
2022/05/06 00:35:58;;;;;;;0.00;0.00;;;9.70;99.90;;;;;;5095835;28;20061;-78
2022/05/06 00:38:24;;;;;;;0.20;0.20;;;9.60;99.90;;;;;;5112986;28;20130;-78
2022/05/06 00:40:50;;;;;;;0.00;0.00;;;9.60;99.90;;;;;;5112958;28;20043;-78
2022/05/06 00:43:17;;;;;;;0.70;0.10;;;9.60;99.90;;;;;;5095179;28;20083;-78
2022/05/06 00:45:48;;;;;;;0.00;0.00;;;9.50;99.90;;;;;;5112808;28;20075;-78
2022/05/06 00:48:15;;;;;;;0.00;0.00;;;9.60;99.90;;;;;;5112596;28;20126;-79
2022/05/06 00:50:42;;;;;;;0.10;0.10;;;9.50;99.90;;;;;;5095960;28;20052;-78
2022/05/06 00:53:08;;;;;;;0.00;0.00;;;9.50;99.90;;;;;;5112927;28;20051;-79
2022/05/06 00:55:35;;;;;;;0.20;0.10;;;9.40;99.90;;;;;;5112586;28;20510;-79
2022/05/06 00:58:02;;;;;;;0.15;0.00;;;9.30;99.90;;;;;;5112633;28;20051;-78
2022/05/06 01:00:29;;;;;;;0.52;0.47;;;9.30;99.90;;;;;;5112820;28;20043;-79
2022/05/06 01:02:55;;;;;;;0.00;0.00;;;9.40;99.90;;;;;;5112376;28;20521;-78
2022/05/06 01:05:22;;;;;;;0.00;0.00;;;9.30;99.90;;;;;;5095985;28;20402;-78
2022/05/06 01:07:50;;;;;;;1.17;0.85;;;9.20;99.90;;;;;;5095574;28;20148;-79
2022/05/06 01:10:20;;;;;;;0.63;0.45;;;9.20;99.90;;;;;;5112531;28;20048;-78
2022/05/06 01:12:46;;;;;;;0.15;0.10;;;9.30;99.90;;;;;;5095375;28;20047;-78
2022/05/06 01:15:19;;;;;;;0.00;0.00;;;9.30;99.90;;;;;;5096876;28;20055;-78
2022/05/06 01:17:46;;;;;;;0.00;0.00;;;9.20;99.90;;;;;;5098752;28;20066;-78
2022/05/06 01:20:15;;;;;;;0.10;0.10;;;9.20;99.90;;;;;;5116243;28;20063;-78
2022/05/06 01:22:42;;;;;;;0.00;0.00;;;9.10;99.90;;;;;;5099158;28;20074;-78
2022/05/06 01:25:08;;;;;;;0.25;0.25;;;9.00;99.90;;;;;;5099154;28;20064;-78
2022/05/06 01:27:39;;;;;;;0.28;0.20;;;9.00;99.90;;;;;;5116232;28;20049;-79
2022/05/06 01:30:05;;;;;;;1.75;0.00;;;9.00;99.90;;;;;;5116231;28;20039;-78
2022/05/06 01:32:32;;;;;;;0.65;0.43;;;9.00;99.90;;;;;;5115445;28;20039;-78
2022/05/06 01:35:00;;;;;;;0.65;0.50;;;8.90;99.90;;;;;;5097493;28;20051;-78
2022/05/06 01:37:27;;;;;;;0.10;0.08;;;9.00;99.90;;;;;;5096306;28;20055;-78
2022/05/06 01:40:01;;;;;;;3.03;0.73;;;9.00;99.90;;;;;;5098389;28;20044;-78
2022/05/06 01:42:29;;;;;;;0.10;0.00;;;9.00;99.90;;;;;;5115734;28;20043;-78
2022/05/06 01:44:56;;;;;;;0.10;0.10;;;8.90;99.90;;;;;;5098858;28;20112;-78
2022/05/06 01:47:26;;;;;;;0.05;0.05;;;8.90;99.90;;;;;;5115526;28;20487;-78
2022/05/06 01:49:54;;;;;;;0.00;0.00;;;8.90;99.90;;;;;;5098438;28;20051;-78
2022/05/06 01:52:21;;;;;;;0.95;0.52;;;8.80;99.90;;;;;;5098567;28;20039;-78
2022/05/06 01:54:47;;;;;;;0.20;0.17;;;8.80;99.90;;;;;;5115484;28;20047;-78
2022/05/06 01:57:13;;;;;;;0.00;0.00;;;8.90;99.90;;;;;;5098831;28;20058;-78
2022/05/06 01:59:39;;;;;;;0.17;0.13;;;8.80;99.90;;;;;;5115525;28;20044;-78
2022/05/06 02:02:05;;;;;;;0.10;0.05;;;8.70;99.90;;;;;;5115122;28;20075;-78
2022/05/06 02:07:15;;;;;;;0.10;0.10;;;8.70;99.90;;;;;;5115752;28;20433;-78
2022/05/06 02:09:41;;;;;;;1.08;0.15;;;8.60;99.90;;;;;;5115183;28;20040;-78
2022/05/06 02:12:07;;;;;;;2.38;0.03;;;8.50;99.90;;;;;;5098318;28;20043;-78
2022/05/06 02:14:33;;;;;;;0.80;0.30;;;8.50;99.90;;;;;;5115394;28;20144;-78
2022/05/06 02:16:59;;;;;;;0.00;0.00;;;8.60;99.90;;;;;;5114598;28;20093;-79
2022/05/06 02:19:25;;;;;;;0.03;0.03;;;8.50;99.90;;;;;;5098574;28;20112;-78
2022/05/06 02:21:51;;;;;;;0.00;0.00;;;8.50;99.90;;;;;;5114976;28;20043;-78
2022/05/06 02:24:16;;;;;;;0.20;0.00;;;8.50;99.90;;;;;;5115391;28;20130;-78
2022/05/06 02:26:42;;;;;;;0.30;0.30;;;8.40;99.90;;;;;;5097639;28;20040;-78
2022/05/06 02:29:08;;;;;;;1.13;0.38;;;8.40;99.90;;;;;;5097891;28;20422;-78
2022/05/06 02:34:19;;;;;;;0.10;0.10;;;8.40;99.90;;;;;;5115341;28;20055;-78
2022/05/06 02:36:46;;;;;;;0.00;0.00;;;8.40;99.90;;;;;;5097423;28;20046;-79
2022/05/06 02:39:12;;;;;;;0.10;0.10;;;8.30;99.90;;;;;;5114723;28;20097;-78
2022/05/06 02:41:37;;;;;;;0.00;0.00;;;8.30;99.90;;;;;;5097543;28;20069;-78
2022/05/06 02:44:04;;;;;;;0.00;0.00;;;8.20;99.90;;;;;;5097283;28;20058;-78
2022/05/06 02:46:36;;;;;;;1.23;0.10;;;8.20;99.90;;;;;;5097742;28;20065;-78
2022/05/06 02:49:03;;;;;;;0.00;0.00;;;8.10;99.90;;;;;;5114983;28;20047;-77
2022/05/06 02:51:29;;;;;;;0.00;0.00;;;8.10;99.90;;;;;;5114408;28;20506;-78
2022/05/06 02:53:56;;;;;;;0.00;0.00;;;8.10;99.90;;;;;;5114291;28;20048;-78
2022/05/06 02:56:22;;;;;;;0.10;0.10;;;8.10;99.90;;;;;;5097310;28;20048;-78
2022/05/06 02:58:48;;;;;;;0.10;0.10;;;8.10;99.90;;;;;;5114154;28;20039;-78
2022/05/06 03:01:14;;;;;;;0.00;0.00;;;8.10;99.90;;;;;;5114104;28;20051;-78
2022/05/06 03:03:39;;;;;;;0.50;0.28;;;8.10;99.90;;;;;;5096301;28;20052;-77
2022/05/06 03:06:05;;;;;;;0.08;0.08;;;8.00;99.90;;;;;;5113880;28;20500;-77
2022/05/06 03:08:31;;;;;;;0.00;0.00;;;8.00;99.90;;;;;;5097162;28;20097;-78
2022/05/06 03:10:58;;;;;;;0.45;0.00;;;7.80;99.90;;;;;;5113760;28;20052;-78
2022/05/06 03:13:24;;;;;;;0.00;0.00;;;7.80;99.90;;;;;;5113829;28;20058;-78
2022/05/06 03:15:49;;;;;;;0.17;0.17;;;7.80;99.90;;;;;;5097268;28;20052;-78
2022/05/06 03:18:15;;;;;;;0.10;0.00;;;7.80;99.90;;;;;;5096895;28;20407;-78
2022/05/06 03:20:43;;;;;;;1.17;0.10;;;7.70;99.90;;;;;;5097038;28;20063;-78
2022/05/06 03:23:08;;;;;;;0.20;0.20;;;7.70;99.90;;;;;;5113482;28;20046;-77
2022/05/06 03:25:34;;;;;;;0.00;0.00;;;7.70;99.90;;;;;;5113868;28;20044;-78
2022/05/06 03:28:02;;;;;;;0.00;0.00;;;7.70;99.90;;;;;;5113326;28;20467;-78
2022/05/06 03:30:30;;;;;;;0.00;0.00;;;7.70;99.90;;;;;;5097018;28;20067;-78
2022/05/06 03:32:58;;;;;;;0.05;0.00;;;7.60;99.90;;;;;;5096816;28;20445;-78
2022/05/06 03:35:26;;;;;;;0.05;0.00;;;7.60;99.90;;;;;;5096289;28;20480;-78
2022/05/06 03:37:52;;;;;;;0.20;0.20;;;7.60;99.90;;;;;;5113146;28;20039;-79
2022/05/06 03:40:18;;;;;;;0.00;0.00;;;7.60;99.90;;;;;;5096039;28;20051;-78
2022/05/06 03:42:44;;;;;;;0.00;0.00;;;7.60;99.90;;;;;;5113343;28;20032;-78
2022/05/06 03:45:10;;;;;;;0.35;0.35;;;7.60;99.90;;;;;;5096350;28;20532;-78
2022/05/06 03:47:36;;;;;;;0.00;0.00;;;7.60;99.90;;;;;;5112862;28;20054;-78
2022/05/06 03:52:49;;;;;;;0.73;0.15;;;7.70;99.90;;;;;;5113271;28;20058;-79
2022/05/06 03:55:15;;;;;;;0.20;0.20;;;7.70;99.90;;;;;;5096722;28;20054;-78
2022/05/06 03:57:42;;;;;;;0.17;0.17;;;7.70;99.90;;;;;;5113225;28;20044;-78
2022/05/06 04:00:09;;;;;;;0.00;0.00;;;7.60;99.90;;;;;;5113165;28;20043;-78
2022/05/06 04:02:36;;;;;;;5.78;0.00;;;7.60;99.90;;;;;;5112958;28;20044;-78
2022/05/06 04:05:03;;;;;;;0.00;0.00;;;7.60;99.90;;;;;;5112959;28;20087;-78
2022/05/06 04:07:29;;;;;;;0.08;0.05;;;7.60;99.90;;;;;;5113341;28;20048;-79
2022/05/06 04:09:54;;;;;;;1.75;0.20;;;7.60;99.90;;;;;;5096500;28;20048;-78
2022/05/06 04:12:21;;;;;;;0.10;0.10;;;7.60;99.90;;;;;;5113234;28;20135;-79
2022/05/06 04:14:47;;;;;;;0.10;0.00;;;7.60;99.90;;;;;;5113204;28;20091;-79
2022/05/06 04:17:13;;;;;;;1.55;0.20;;;7.60;99.90;;;;;;5113126;28;20126;-79
2022/05/06 04:23:29;;;;;;;0.10;0.10;;;7.70;99.90;;;;;;5113049;28;20079;-79
2022/05/06 04:25:15;;;;;;;0.22;0.22;;;7.70;99.90;;;;;;5113357;28;20066;-79
2022/05/06 04:27:44;;;;;;;0.00;0.00;;;7.70;99.90;;;;;;5112991;28;20047;-78
2022/05/06 04:30:11;;;;;;;0.17;0.10;;;7.70;99.90;;;;;;5112593;28;20040;-79
2022/05/06 04:32:37;;;;;;;1.00;0.40;;;7.80;99.90;;;;;;5112507;28;20059;-79
2022/05/06 04:35:06;;;;;;;0.00;0.00;;;7.80;99.90;;;;;;5113013;28;20050;-79
2022/05/06 04:37:35;;;;;;;0.20;0.17;;;7.80;99.90;;;;;;5095859;28;20538;-79
2022/05/06 04:40:01;;;;;;;0.00;0.00;;;7.80;99.90;;;;;;5112576;28;20052;-79
2022/05/06 04:42:27;;;;;;;0.00;0.00;;;7.80;99.90;;;;;;5095876;28;20399;-79
2022/05/06 04:44:53;;;;;;;9.95;0.40;;;7.80;99.90;;;;;;5112479;28;20077;-79
2022/05/06 04:47:19;;;;;;;0.00;0.00;;;7.90;99.90;;;;;;5112798;28;20035;-79
2022/05/06 04:49:44;;;;;;;0.00;0.00;;;7.80;99.90;;;;;;5096390;28;20084;-78
2022/05/06 04:52:10;;;;;;;0.65;0.45;;;7.80;99.90;;;;;;5100538;28;20058;-78
2022/05/06 04:54:36;;;;;;;0.43;0.22;;;7.80;99.90;;;;;;5116701;28;20502;-79
2022/05/06 04:57:02;;;;;;;0.00;0.00;;;7.90;99.90;;;;;;5099661;28;20040;-79
2022/05/06 04:59:28;;;;;;;0.00;0.00;;;8.00;99.90;;;;;;5116605;28;20047;-79
2022/05/06 05:01:53;;;;;;;0.08;0.08;;;8.00;99.90;;;;;;5100243;28;20490;-79
2022/05/06 05:04:19;;;;;;;0.70;0.25;;;8.00;99.90;;;;;;5115729;28;20051;-79
2022/05/06 05:06:45;;;;;;;0.40;0.00;;;7.90;99.90;;;;;;5116273;28;20055;-79
2022/05/06 05:09:11;;;;;;;0.10;0.10;;;8.00;99.90;;;;;;5116331;28;20039;-79
2022/05/06 05:11:37;;;;;;;0.00;0.00;;;8.10;99.90;;;;;;5098871;28;20065;-78
2022/05/06 05:14:06;;;;;;;0.10;0.10;;;8.10;99.90;;;;;;5115727;28;20079;-79
2022/05/06 05:16:33;;;;;;;0.60;0.30;;;8.20;99.90;;;;;;5116219;28;20050;-79
2022/05/06 05:18:59;;;;;;;0.95;0.35;;;8.20;99.90;;;;;;5116754;28;20044;-79
2022/05/06 05:21:24;;;;;;;0.30;0.30;;;8.20;99.90;;;;;;5115897;28;20131;-79
2022/05/06 05:23:50;;;;;;;0.47;0.30;;;8.20;99.90;;;;;;5115837;28;20043;-79
2022/05/06 05:26:16;;;;;;;0.00;0.00;;;8.30;99.90;;;;;;5115615;28;20109;-79
2022/05/06 05:28:41;;;;;;;0.40;0.05;;;8.40;99.90;;;;;;5116042;28;20138;-78
2022/05/06 05:31:07;;;;;;;0.35;0.32;;;8.40;99.90;;;;;;5116174;28;20360;-79
2022/05/06 05:33:33;;;;;;;0.00;0.00;;;8.50;99.90;;;;;;5115948;28;20116;-79
2022/05/06 05:35:58;;;;;;;1.00;0.10;;;8.60;99.90;;;;;;5099011;28;20055;-79
2022/05/06 05:38:24;;;;;;;2.50;0.35;;;8.50;99.90;;;;;;5116461;28;20452;-79
2022/05/06 05:40:50;;;;;;;0.08;0.08;;;8.60;99.90;;;;;;5116002;28;20040;-79
2022/05/06 05:48:44;;;;;;;0.10;0.10;;;8.80;99.90;;;;;;5115511;28;20487;-79
2022/05/06 05:51:10;;;;;;;0.00;0.00;;;8.90;99.90;;;;;;5115900;28;20047;-79
2022/05/06 05:53:36;;;;;;;4.38;0.70;;;9.10;99.90;;;;;;5115470;28;20081;-79
2022/05/06 05:56:01;;;;;;;0.60;0.60;;;9.20;99.90;;;;;;5098666;28;20065;-78
2022/05/06 05:58:27;;;;;;;2.38;0.55;;;9.30;99.90;;;;;;5098444;28;20056;-79
2022/05/06 06:00:53;;;;;;;0.00;0.00;;;9.40;99.90;;;;;;5115530;28;20087;-79
2022/05/06 06:03:19;;;;;;;0.25;0.00;;;9.50;99.90;;;;;;5114187;28;20082;-79
2022/05/06 06:05:45;;;;;;;0.03;0.03;;;9.50;99.90;;;;;;5115332;28;20055;-79
2022/05/06 06:08:11;;;;;;;0.10;0.10;;;9.70;99.90;;;;;;5115245;28;20042;-79
2022/05/06 06:10:37;;;;;;;1.63;0.25;;;9.70;99.90;;;;;;5115287;28;20402;-79
2022/05/06 06:13:04;;;;;;;1.23;0.20;;;9.90;99.90;;;;;;5098455;28;20048;-79
2022/05/06 06:15:31;;;;;;;0.55;0.55;;;10.00;99.90;;;;;;5098148;28;20074;-79
2022/05/06 06:17:59;;;;;;;0.43;0.28;;;10.10;99.90;;;;;;5114896;28;20052;-79
2022/05/06 06:20:26;;;;;;;0.32;0.15;;;10.10;99.90;;;;;;5115030;28;20043;-80
2022/05/06 06:22:52;;;;;;;0.10;0.10;;;10.40;99.90;;;;;;5098045;28;20506;-79
2022/05/06 06:25:17;;;;;;;0.40;0.40;;;10.70;99.90;;;;;;5114941;28;20051;-79
2022/05/06 06:27:46;;;;;;;0.00;0.00;;;11.20;99.90;;;;;;5114954;28;20046;-79
2022/05/06 06:30:12;;;;;;;0.32;0.32;;;11.40;99.90;;;;;;5115277;28;20090;-79
2022/05/06 06:32:38;;;;;;;0.55;0.25;;;11.50;99.90;;;;;;5115061;28;20075;-79
2022/05/06 06:35:04;;;;;;;0.57;0.57;;;11.50;99.90;;;;;;5114789;28;20487;-80
2022/05/06 06:37:32;;;;;;;0.52;0.40;;;11.60;99.90;;;;;;5114627;28;20044;-79
2022/05/06 06:39:58;;;;;;;0.22;0.22;;;11.60;99.90;;;;;;5097304;28;20056;-80
2022/05/06 06:42:25;;;;;;;1.60;1.20;;;11.80;99.90;;;;;;5097274;28;20036;-79
2022/05/06 06:44:51;;;;;;;1.98;0.20;;;11.80;99.90;;;;;;5097200;28;20500;-80
2022/05/06 06:47:17;;;;;;;0.47;0.47;;;11.80;99.90;;;;;;5097716;28;20098;-79
2022/05/06 06:49:42;;;;;;;0.40;0.40;;;11.90;99.90;;;;;;5097548;28;20043;-80
2022/05/06 06:52:08;;;;;;;0.00;0.00;;;12.30;99.90;;;;;;5114135;28;20047;-79
2022/05/06 06:54:34;;;;;;;0.52;0.35;;;12.90;99.90;;;;;;5095658;28;20152;-78
2022/05/06 06:56:59;;;;;;;0.55;0.43;;;13.50;99.90;;;;;;5112734;28;20040;-78
2022/05/06 06:59:25;;;;;;;0.20;0.20;;;13.90;99.90;;;;;;5112718;28;20050;-78
2022/05/06 07:01:51;;;;;;;1.98;0.55;;;14.10;99.90;;;;;;5112442;28;20027;-80
2022/05/06 07:04:16;;;;;;;3.03;0.82;;;14.30;99.90;;;;;;5111967;28;20060;-79
2022/05/06 07:12:10;;;;;;;0.98;0.65;;;14.40;99.90;;;;;;5111792;28;20264;-79
2022/05/06 07:14:36;;;;;;;0.68;0.13;;;14.60;99.90;;;;;;5109371;28;20134;-80
2022/05/06 07:17:05;;;;;;;0.32;0.32;;;14.80;99.90;;;;;;5095243;28;20184;-82
2022/05/06 07:19:31;;;;;;;0.47;0.22;;;14.90;99.90;;;;;;5112340;28;20178;-79
2022/05/06 07:21:56;;;;;;;0.20;0.17;;;15.00;99.90;;;;;;5110069;28;20554;-80
2022/05/06 07:24:24;;;;;;;1.00;0.80;;;15.00;99.90;;;;;;5095998;28;20132;-80
2022/05/06 07:26:51;;;;;;;0.43;0.43;;;14.90;99.90;;;;;;5110389;28;20040;-79
2022/05/06 07:29:16;;;;;;;5.35;1.15;;;14.70;99.90;;;;;;5076404;28;20166;-80
2022/05/06 07:31:43;;;;;;;0.20;0.20;;;14.70;99.90;;;;;;5093000;28;20135;-80
2022/05/06 07:34:12;;;;;;;0.10;0.10;;;14.80;99.90;;;;;;5093279;28;20059;-80
2022/05/06 07:36:42;;;;;;;0.30;0.13;;;14.80;99.90;;;;;;5094121;28;20044;-81
2022/05/06 07:39:12;;;;;;;0.77;0.10;;;14.80;99.90;;;;;;5095703;28;20051;-80
2022/05/06 07:41:38;;;;;;;7.38;1.35;;;14.90;99.90;;;;;;5096176;28;20054;-80
2022/05/06 07:44:04;;;;;;;0.05;0.05;;;14.70;99.90;;;;;;5092962;28;20494;-81
2022/05/06 07:46:31;;;;;;;2.00;0.85;;;14.70;99.90;;;;;;5095098;28;20060;-81
2022/05/06 07:48:57;;;;;;;0.45;0.45;;;14.80;99.90;;;;;;5110546;28;20066;-81
2022/05/06 07:51:23;;;;;;;0.40;0.40;;;14.80;99.90;;;;;;5111227;28;20142;-80
2022/05/06 07:53:51;;;;;;;0.68;0.68;;;14.90;99.90;;;;;;5110516;28;20047;-80
2022/05/06 07:56:21;;;;;;;0.75;0.75;;;15.00;99.90;;;;;;5094705;28;20044;-80
2022/05/06 07:58:48;;;;;;;0.38;0.38;;;15.10;99.90;;;;;;5111743;28;20545;-80
2022/05/06 08:01:14;;;;;;;0.70;0.45;;;15.30;99.90;;;;;;5111345;28;20479;-80
2022/05/06 08:06:24;;;;;;;1.00;0.50;;;15.40;99.90;;;;;;5111430;28;20061;-80
2022/05/06 08:08:50;;;;;;;4.13;0.28;;;15.30;99.90;;;;;;5110989;28;20067;-80
2022/05/06 08:11:17;;;;;;;1.08;0.73;;;15.30;99.90;;;;;;5111173;28;20135;-80
2022/05/06 08:13:44;;;;;;;1.25;0.88;;;15.30;99.90;;;;;;5110303;28;20043;-80
2022/05/06 08:16:10;;;;;;;0.57;0.47;;;15.20;99.90;;;;;;5111753;28;20138;-81
2022/05/06 08:18:37;;;;;;;0.55;0.55;;;15.20;99.90;;;;;;5111277;28;20105;-80
2022/05/06 08:21:03;;;;;;;0.65;0.65;;;15.10;99.90;;;;;;5108870;28;20055;-80
2022/05/06 08:23:29;;;;;;;0.50;0.50;;;15.10;99.90;;;;;;5110262;28;20063;-81
2022/05/06 08:25:55;;;;;;;3.15;0.43;;;15.20;99.90;;;;;;5112370;28;20043;-80
2022/05/06 08:28:22;;;;;;;0.20;0.20;;;15.20;99.90;;;;;;5115077;28;20047;-79
2022/05/06 08:30:52;;;;;;;0.40;0.40;;;15.20;99.90;;;;;;5116796;28;20055;-80
2022/05/06 08:33:19;;;;;;;1.20;1.10;;;15.30;99.90;;;;;;5100417;28;20447;-80
2022/05/06 08:35:45;;;;;;;1.45;1.00;;;15.40;99.90;;;;;;5117148;28;20181;-80
2022/05/06 08:38:12;;;;;;;0.57;0.45;;;15.60;99.90;;;;;;5116717;28;20132;-80
2022/05/06 08:40:38;;;;;;;0.63;0.20;;;15.80;99.90;;;;;;5099812;28;20558;-80
2022/05/06 08:43:04;;;;;;;0.28;0.28;;;15.80;99.90;;;;;;5117131;28;20149;-80
2022/05/06 08:51:01;;;;;;;2.38;0.68;;;16.20;99.90;;;;;;5116618;28;20078;-80
2022/05/06 08:53:32;;;;;;;1.20;0.30;;;16.40;99.90;;;;;;5099459;28;20050;-80
2022/05/06 08:56:02;;;;;;;0.10;0.10;;;16.60;99.90;;;;;;5116803;28;20044;-80
2022/05/06 08:58:29;;;;;;;0.40;0.40;;;16.70;99.90;;;;;;5099694;28;20130;-80
2022/05/06 09:01:05;;;;;;;0.40;0.40;;;16.80;99.90;;;;;;5116574;28;20054;-80
2022/05/06 09:03:30;;;;;;;0.35;0.35;;;16.90;99.90;;;;;;5116133;28;20478;-79
2022/05/06 09:05:59;;;;;;;0.40;0.40;;;17.00;99.90;;;;;;5099761;28;20092;-79
2022/05/06 09:08:36;;;;;;;6.18;1.15;;;17.10;99.90;;;;;;5116876;28;20054;-80
2022/05/06 09:11:09;;;;;;;0.85;0.80;;;17.30;99.90;;;;;;5099330;28;20051;-79
2022/05/06 09:13:51;;;;;;;1.58;0.65;;;17.40;99.90;;;;;;5116478;28;20047;-79
2022/05/06 09:16:40;;;;;;;0.85;0.85;;;17.40;99.90;;;;;;5116352;28;20063;-80
2022/05/06 09:19:15;;;;;;;0.30;0.30;;;17.60;99.90;;;;;;5099526;28;20463;-79
2022/05/06 09:22:05;;;;;;;0.17;0.17;;;17.70;99.90;;;;;;5099280;28;20157;-80
2022/05/06 09:24:38;;;;;;;0.63;0.50;;;17.70;99.90;;;;;;5116059;28;20066;-80
2022/05/06 09:27:06;;;;;;;0.00;0.00;;;17.80;99.90;;;;;;5116877;28;20065;-80
2022/05/06 09:29:52;;;;;;;0.30;0.30;;;18.00;99.90;;;;;;5116112;28;20387;-80
2022/05/06 09:32:26;;;;;;;1.25;0.43;;;18.10;99.90;;;;;;5115936;28;20390;-80
2022/05/06 09:34:57;;;;;;;0.40;0.35;;;18.30;99.90;;;;;;5115846;28;20062;-80
2022/05/06 09:37:33;;;;;;;0.00;0.00;;;18.40;99.90;;;;;;5097027;28;20059;-80
2022/05/06 09:40:12;;;;;;;0.30;0.30;;;18.50;99.90;;;;;;5115813;28;20437;-80
2022/05/06 09:42:53;;;;;;;0.60;0.60;;;18.70;99.90;;;;;;5098151;28;20052;-80
2022/05/06 09:45:28;;;;;;;2.53;0.95;;;18.90;99.90;;;;;;5115005;28;20043;-80
2022/05/06 09:48:02;;;;;;;0.08;0.08;;;19.00;99.90;;;;;;5098532;28;20046;-80
2022/05/06 09:50:41;;;;;;;0.43;0.28;;;19.20;99.90;;;;;;5115918;28;20040;-81
2022/05/06 09:53:12;;;;;;;0.20;0.20;;;19.50;99.90;;;;;;5098555;28;20117;-80
2022/05/06 09:55:44;;;;;;;0.70;0.20;;;19.50;99.90;;;;;;5116151;28;20051;-80
2022/05/06 09:58:11;;;;;;;0.20;0.15;;;19.60;99.90;;;;;;5115547;28;20112;-81
2022/05/06 10:00:38;;;;;;;0.30;0.20;;;19.60;99.90;;;;;;5115424;28;20499;-80
2022/05/06 10:03:04;;;;;;;6.22;0.93;;;19.70;99.90;;;;;;5115160;28;20396;-80
2022/05/06 10:05:34;;;;;;;0.10;0.10;;;19.70;99.90;;;;;;5097902;28;20429;-80
2022/05/06 10:08:05;;;;;;;0.22;0.22;;;19.80;99.90;;;;;;5098251;28;20039;-80
2022/05/06 10:10:38;;;;;;;3.83;0.30;;;20.00;99.90;;;;;;5115505;28;20407;-80
2022/05/06 10:13:11;;;;;;;1.65;0.75;;;20.20;99.90;;;;;;5115491;28;20399;-80
2022/05/06 10:15:37;;;;;;;0.00;0.00;;;20.20;99.90;;;;;;5098450;28;20052;-80
2022/05/06 10:18:07;;;;;;;0.00;0.00;;;20.40;99.90;;;;;;5115534;28;20039;-80
2022/05/06 10:20:36;;;;;;;0.28;0.22;;;20.50;99.70;;;;;;5115136;28;20406;-80
2022/05/06 10:23:07;;;;;;;0.43;0.43;;;20.60;99.40;;;;;;5114935;28;20045;-80
2022/05/06 10:25:42;;;;;;;0.38;0.10;;;20.70;97.30;;;;;;5115444;28;20047;-80
2022/05/06 10:34:30;;;;;;;0.00;0.00;;;21.10;97.20;;;;;;5056591;28;20566;-80
2022/05/06 10:36:58;;;;;;;0.10;0.10;;;21.20;97.40;;;;;;5056458;28;20135;-80
2022/05/06 10:39:23;;;;;;;0.00;0.00;;;21.30;95.90;;;;;;5056302;28;20044;-80
2022/05/06 10:41:58;;;;;;;0.00;0.00;;;21.50;95.60;;;;;;5039781;28;20059;-80
2022/05/06 10:44:38;;;;;;;0.00;0.00;;;21.70;96.40;;;;;;5039328;28;20123;-80
2022/05/06 10:47:23;;;;;;;0.00;0.00;;;21.90;95.20;;;;;;5039171;28;20411;-80
2022/05/06 10:49:50;;;;;;;0.57;0.00;;;21.80;95.00;;;;;;5056764;28;20059;-80
2022/05/06 10:52:26;;;;;;;0.00;0.00;;;22.00;95.20;;;;;;5039602;28;20426;-80
2022/05/06 10:55:00;;;;;;;0.00;0.00;;;21.90;93.20;;;;;;5039609;28;20052;-80
2022/05/06 10:57:28;;;;;;;0.00;0.00;;;22.00;93.50;;;;;;5039620;28;20057;-80
2022/05/06 10:59:56;;;;;;;0.10;0.10;;;22.00;91.40;;;;;;5039233;28;20326;-80
2022/05/06 11:02:29;;;;;;;0.00;0.00;;;21.80;91.90;;;;;;5055986;28;20496;-81
2022/05/06 11:04:57;;;;;;;0.10;0.10;;;21.90;91.10;;;;;;5055222;28;20056;-80
2022/05/06 11:07:23;;;;;;;0.00;0.00;;;21.80;91.20;;;;;;5039061;28;20052;-80
2022/05/06 11:09:51;;;;;;;0.52;0.30;;;21.80;91.20;;;;;;5070691;28;20060;-81
2022/05/06 11:12:28;;;;;;;0.10;0.08;;;21.90;91.60;;;;;;5114067;28;20564;-81
2022/05/06 11:14:55;;;;;;;0.00;0.00;;;22.00;91.80;;;;;;5113628;28;20043;-80
2022/05/06 11:17:27;;;;;;;0.00;0.00;;;22.10;90.70;;;;;;5114532;28;20587;-80
2022/05/06 11:19:53;;;;;;;0.00;0.00;;;22.20;90.40;;;;;;5114359;28;20126;-81
2022/05/06 11:22:20;;;;;;;0.00;0.00;;;22.20;90.30;;;;;;5096891;28;20051;-80
2022/05/06 11:24:46;;;;;;;1.17;0.25;;;22.30;91.10;;;;;;5113795;28;20491;-81
2022/05/06 11:27:17;;;;;;;0.00;0.00;;;22.40;90.80;;;;;;5096705;28;20052;-81
2022/05/06 11:29:58;;;;;;;0.00;0.00;;;22.50;89.60;;;;;;5096721;28;20058;-80
2022/05/06 11:32:26;;;;;;;0.10;0.00;;;22.50;89.40;;;;;;5113669;28;20101;-80
2022/05/06 11:34:57;;;;;;;0.17;0.00;;;22.60;86.00;;;;;;5096696;28;20086;-81
2022/05/06 11:37:25;;;;;;;0.10;0.00;;;22.70;88.90;;;;;;5113740;28;20521;-80
2022/05/06 11:39:51;;;;;;;0.00;0.00;;;22.60;89.00;;;;;;5113728;28;20040;-81
2022/05/06 11:42:21;;;;;;;0.90;0.15;;;22.60;83.90;;;;;;5112992;28;20043;-81
2022/05/06 11:47:44;;;;;;;0.00;0.00;;;22.60;86.60;;;;;;5113371;28;20487;-80
2022/05/06 11:50:10;;;;;;;0.00;0.00;;;22.70;84.90;;;;;;5097399;28;20054;-81
2022/05/06 11:52:40;;;;;;;0.08;0.08;;;22.80;83.20;;;;;;5096438;28;20093;-81
2022/05/06 11:55:07;;;;;;;0.05;0.00;;;22.90;86.80;;;;;;5113143;28;20570;-81
2022/05/06 11:57:39;;;;;;;0.00;0.00;;;23.10;84.50;;;;;;5096508;28;20484;-81
2022/05/06 12:00:06;;;;;;;0.00;0.00;;;23.10;82.50;;;;;;5112570;28;20043;-80
2022/05/06 12:02:32;;;;;;;0.00;0.00;;;23.20;81.70;;;;;;5113226;28;20148;-81
2022/05/06 12:04:58;;;;;;;0.00;0.00;;;23.20;76.00;;;;;;5113040;28;20058;-81
2022/05/06 12:07:45;;;;;;;0.00;0.00;;;23.10;79.20;;;;;;5113155;28;20134;-81
2022/05/06 12:10:32;;;;;;;0.00;0.00;;;23.10;77.20;;;;;;5113557;28;20079;-81
2022/05/06 12:12:58;;;;;;;1.75;0.25;;;23.10;79.40;;;;;;5113169;28;20091;-80
2022/05/06 12:15:47;;;;;;;0.00;0.00;;;23.10;79.70;;;;;;5112944;28;20043;-80
2022/05/06 12:18:24;;;;;;;0.00;0.00;;;23.10;79.40;;;;;;5096414;28;20073;-80
2022/05/06 12:20:50;;;;;;;0.00;0.00;;;23.20;78.50;;;;;;5096370;28;20059;-80
2022/05/06 12:23:25;;;;;;;0.00;0.00;;;23.30;78.90;;;;;;5112691;28;20046;-80
2022/05/06 12:25:54;;;;;;;0.00;0.00;;;23.40;75.80;;;;;;5096319;28;20069;-81
2022/05/06 12:28:20;;;;;;;0.00;0.00;;;23.50;76.00;;;;;;5096049;28;20077;-81
2022/05/06 12:30:54;;;;;;;0.05;0.00;;;23.50;74.40;;;;;;5112959;28;20108;-81
2022/05/06 12:33:19;;;;;;;0.00;0.00;;;23.60;74.20;;;;;;5096360;28;20043;-80
2022/05/06 12:36:03;;;;;;;0.22;0.10;;;23.80;75.60;;;;;;5112573;28;20061;-81
2022/05/06 12:38:41;;;;;;;0.00;0.00;;;23.80;73.60;;;;;;5112661;28;20044;-81
2022/05/06 12:41:23;;;;;;;0.00;0.00;;;23.90;71.90;;;;;;5096020;28;20047;-80
2022/05/06 12:43:50;;;;;;;0.00;0.00;;;23.90;71.50;;;;;;5112458;28;20047;-79
2022/05/06 12:46:33;;;;;;;0.20;0.20;;;24.00;68.70;;;;;;5112840;28;20043;-79
2022/05/06 12:51:45;;;;;;;;;;;24.10;67.00;;;;;;5113583;28;20395;-80
2022/05/06 12:54:12;;;;;;;0.00;0.00;;;24.00;67.30;;;;;;5112784;28;19919;-79
2022/05/06 12:56:38;;;;;;;0.13;0.03;;;24.10;68.00;;;;;;5112668;28;20079;-79
2022/05/06 12:59:05;;;;;;;0.05;0.03;;;24.10;68.20;;;;;;5112983;28;20050;-79
2022/05/06 13:01:31;;;;;;;0.00;0.00;;;24.10;66.30;;;;;;5095822;28;20113;-79
2022/05/06 13:03:58;;;;;;;0.00;0.00;;;24.30;68.40;;;;;;5095160;28;20480;-79
2022/05/06 13:06:24;;;;;;;0.03;0.03;;;24.30;67.70;;;;;;5112809;28;20056;-80
2022/05/06 13:08:50;;;;;;;0.00;0.00;;;24.40;67.20;;;;;;5095794;28;20512;-79
2022/05/06 13:11:17;;;;;;;0.08;0.08;;;24.40;66.60;;;;;;5113853;28;20193;-79
2022/05/06 13:13:42;;;;;;;0.10;0.10;;;24.20;67.20;;;;;;5099322;28;20047;-79
2022/05/06 13:16:09;;;;;;;0.05;0.05;;;24.40;65.80;;;;;;5116558;28;20051;-79
2022/05/06 13:18:36;;;;;;;0.08;0.00;;;24.40;67.20;;;;;;5116445;28;20083;-79
2022/05/06 13:21:02;;;;;;;0.00;0.00;;;24.50;68.30;;;;;;5099180;28;20086;-79
2022/05/06 13:23:28;;;;;;;0.00;0.00;;;24.50;66.80;;;;;;5098786;28;20138;-80
2022/05/06 13:25:54;;;;;;;0.00;0.00;;;24.40;66.50;;;;;;5098466;28;20090;-80
2022/05/06 13:28:20;;;;;;;0.08;0.00;;;24.40;65.50;;;;;;5115642;28;20085;-80
2022/05/06 13:30:46;;;;;;;0.00;0.00;;;24.40;67.60;;;;;;5099048;28;20096;-79
2022/05/06 13:33:12;;;;;;;0.00;0.00;;;24.50;66.20;;;;;;5099180;28;20040;-79
2022/05/06 13:35:37;;;;;;;0.00;0.00;;;24.40;66.00;;;;;;5116111;28;20047;-81
2022/05/06 13:38:03;;;;;;;0.00;0.00;;;24.30;66.60;;;;;;5116641;28;20078;-84